-1){ existingHash = window.location.href.substr(window.location.href.indexOf("#")); } ctx.existingServerFilterHash = existingHash; if (ctx.existingServerFilterHash.indexOf("ServerFilter=") == 1) { ctx.existingServerFilterHash = ctx.existingServerFilterHash.replace(/-/g, '&').replace(/&&/g, '-'); var serverFilterRootFolder = GetUrlKeyValue("RootFolder", true,ctx.existingServerFilterHash); var currentRootFolder = GetUrlKeyValue("RootFolder", true); if("" == serverFilterRootFolder && "" != currentRootFolder) { ctx.existingServerFilterHash += "&RootFolder=" + currentRootFolder; } window.location.hash = ''; window.location.search = '?' + ctx.existingServerFilterHash.substr("ServerFilter=".length + 1); } ctx.listBaseType = 1; ctx.NavigateForFormsPages = false; ctx.listTemplate = "101"; ctx.listName = "{8543F6A4-CA22-4496-BA0D-B65021EBE506}"; ctx.view = "{41897954-71D0-4F15-A0DA-2FC0F2E87082}"; ctx.listUrlDir = "/sites/cob/RoadFile"; ctx.HttpPath = "https://www.sccgov.org/sites/cob/_vti_bin/owssvr.dll?CS=65001"; ctx.HttpRoot = "https://www.sccgov.org/sites/cob"; ctx.imagesPath = "/_layouts/images/"; ctx.PortalUrl = ""; ctx.SendToLocationName = ""; ctx.SendToLocationUrl = ""; ctx.RecycleBinEnabled = 1; ctx.OfficialFileName = ""; ctx.OfficialFileNames = ""; ctx.WriteSecurity = "1"; ctx.SiteTitle = "Clerk of the Board"; ctx.ListTitle = "RoadFile"; if (ctx.PortalUrl == "") ctx.PortalUrl = null; ctx.displayFormUrl = "https://www.sccgov.org/sites/cob/_layouts/listform.aspx?PageType=4&ListId={8543F6A4-CA22-4496-BA0D-B65021EBE506}"; ctx.editFormUrl = "https://www.sccgov.org/sites/cob/_layouts/listform.aspx?PageType=6&ListId={8543F6A4-CA22-4496-BA0D-B65021EBE506}"; ctx.isWebEditorPreview = 0; ctx.ctxId = 127; ctx.isXslView = true; if (g_ViewIdToViewCounterMap["{41897954-71D0-4F15-A0DA-2FC0F2E87082}"] == null) g_ViewIdToViewCounterMap["{41897954-71D0-4F15-A0DA-2FC0F2E87082}"]= 127; ctx.CurrentUserId = -1; ctx.ContentTypesEnabled = true; ctx127 = ctx; g_ctxDict['ctx127'] = ctx; ]]>
Name  RoadName  RoadNumber  FileLabel1  ScanDate  ScanUser  Modified  BatchName  ID  
2013  1/10/2013 8:07 AM3
20111121143540_00184B77  CANADA DEL LOS OSOS PETITION87GENERAL11/7/2011 12:00 AMSyTech Solutions, Inc5/15/2012 2:55 PMSACLA.0001.0627_000110
1300  ENGLEWOOD AVENUE1300GENERAL1/30/2012 10:41 AM20
153-26-085 Grant Deed  Central Expressway & 100 Moffett Blvd. Project2693APN 153-26-085 Grant Deed5/17/2018 9:39 AM21
092-34-001 Deed of Right of Way  Old Piedmont Road6438APN 092-34-001 Deed of Right of Way12/13/2017 4:19 PM2329316423
086-32-021 and 086-32-028 Quitclaim Deed-1  Montague Expressway8720APN 086-32-021 & 086-32-028 (portions) MEI-006-00112/13/2017 4:10 PM233416324
029-31-002 Deed of Right of Way  2021 Old Calaveras Road6438AP 029-31-002 Deed of Right of Way12/13/2017 4:06 PM2357928125
086-32-021 and 086-32-028 Quitclaim Deed-2  Montague Expressway8720APN 086-32-021 and 086-32-028 (portion) MEI-006-00212/13/2017 4:17 PM2334116426
201102161823_001B650A  SANTA TERESA BOULEVARD2765RIGHTS OF WAY I-L2/10/2012 12:00 AMSyTech Solutions, Inc2/16/2012 6:25 PMSACLA.0004.0627_000227
20111121144934_0018546A  GIST ROAD65CONTRACT EMERGENCY SLIDE REPAIR11/7/2011 12:00 AMSyTech Solutions, Inc10/26/2018 2:36 PMSACLA.0001.0627_0020477
20111121145532_00186D38  Route 237-June 5, 1933STATE HIGHWAYS11/7/2011 12:00 AMSyTech Solutions, Inc3/2/2018 12:36 PMSACLA.0001.0627_0021568
20111121145532_00186D54  El Camino Real # 7:1-68STATE HIGHWAYS11/7/2011 12:00 AMSyTech Solutions, Inc3/2/2018 12:38 PMSACLA.0001.0627_0021577
20111121165954_0018575C  ALMADEN EXPRESSWAY5-AREDMOND RD TO ROUTE #87 PUBLIC HEARING11/7/2011 12:00 AMSyTech Solutions, Inc2/8/2012 7:27 PMSACLA.0001.0627_0033746
20111121170441_001869DD  Montague ExpresswayCONTRACTS AND AGREEMENTS EXPRESSWAYS MONTAGUE SOUTHERN PACIFIC TRANS CO11/7/2011 12:00 AMSyTech Solutions, Inc5/17/2018 10:35 AMSACLA.0001.0627_0036834
20111121171408_00185E2D  SHANNON ROAD339RIGHTS OF WAY A-Z11/7/2011 12:00 AMSyTech Solutions, Inc1/9/2012 11:58 AMSACLA.0001.0627_0042997
20111205094143_00195484  PINKERT STREET2510GENERAL11/29/2011 12:00 AMSyTech Solutions, Inc2/1/2012 8:35 AMSACLA.0002.0627_00361438
20111205095358_0019389D  GORDON WAY1085GENERAL11/29/2011 12:00 AMSyTech Solutions, Inc1/24/2012 1:06 PMSACLA.0002.0627_00101988
20111205095358_001938A2  ARBOR AVENUE1090GENERAL11/29/2011 12:00 AMSyTech Solutions, Inc1/24/2012 1:07 PMSACLA.0002.0627_00101998
20111205095358_001938AE  CALIFORNIA AVENUE1100GENERAL11/29/2011 12:00 AMSyTech Solutions, Inc1/24/2012 1:12 PMSACLA.0002.0627_00102007
20111205095904_00195A6B  LAGUNA ROAD1510GENERAL11/29/2011 12:00 AMSyTech Solutions, Inc1/30/2012 9:53 AMSACLA.0002.0627_00372535
20111205100341_00193842  BUCKNALL ROAD1047GENERAL11/29/2011 12:00 AMSyTech Solutions, Inc1/30/2012 10:59 AMSACLA.0002.0627_00062617
20111205100755_00194CE8  BARRY LANE2072GENERAL11/29/2011 12:00 AMSyTech Solutions, Inc1/30/2012 11:02 AMSACLA.0002.0627_00153170
20111205100755_00194EF4  FREMONT AVENUE393RIGHTS OF WAY A - J11/29/2011 12:00 AMSyTech Solutions, Inc1/10/2012 11:35 AMSACLA.0002.0627_00283317
20111205100755_00194EF5  FREMONT AVENUE393RIGHTS OF WAY K - Z11/29/2011 12:00 AMSyTech Solutions, Inc1/10/2012 11:37 AMSACLA.0002.0627_00283328
20111205100755_00194FBE  OLIVE AVENUE1418RIGHTS OF WAY A-Z11/29/2011 12:00 AMSyTech Solutions, Inc1/31/2012 8:15 AMSACLA.0002.0627_00293451
20111205100755_0019530F  HALE AVENUE W MAIN TO LLAGAS866L C SMITH COMPANY11/29/2011 12:00 AMSyTech Solutions, Inc1/31/2012 8:11 AMSACLA.0002.0627_00353621
20111205100755_001956C1  FOOTHILL AVENUE436CONTRACT - Raisch Paving11/29/2011 12:00 AMSyTech Solutions, Inc1/10/2012 12:13 PMSACLA.0002.0627_00393631
20120206152326_001A19E5  CONTRACTS AND AGREEMENTS COST SHARING ST IMPVTS VARIOUS SUNNYVALE CITY1/18/2012 12:00 AMSyTech Solutions, Inc2/6/2012 3:24 PMSACLA.0003.0627_00023736
20120206152326_001A19DD  CONTRACTS AND AGREEMENTS COST SHARING STORY ROAD SAN JOSE CITY1/18/2012 12:00 AMSyTech Solutions, Inc2/6/2012 3:24 PMSACLA.0003.0627_00023738
20120206152326_001A19D8  CONTRACTS AND AGREEMENTS COST SHARING STORY ROAD SAN JOSE CITY IMPUT AND SIGNAL AT STORY AND CAPITOL EXPRESSWAY1/18/2012 12:00 AMSyTech Solutions, Inc2/6/2012 3:24 PMSACLA.0003.0627_00023739
20120206152326_001A19ED  CONTRACTS AND AGREEMENTS COST SHARING STRIPING/RDWYS SAN JOSE CITY OF1/18/2012 12:00 AMSyTech Solutions, Inc2/6/2012 3:24 PMSACLA.0003.0627_00023741
20120206152326_001A19E1  Story TodCONTRACTS AND AGREEMENTS COST SHARING STORY RD TULLY RD SAN ANTONIO ST STATE DIV OF HWYS1/18/2012 12:00 AMSyTech Solutions, Inc5/18/2018 2:15 PMSACLA.0003.0627_00023742
20120206152326_001A19DF  Story RoadCONTRACTS AND AGREEMENTS COST SHARING STORY RD STATE DIV OF HWYS CO-STATE AGMT 5 FAS MCLAUGHLIN AVE TO WHITE RD1/18/2012 12:00 AMSyTech Solutions, Inc5/18/2018 2:15 PMSACLA.0003.0627_00023743
20120206152326_001A19DE  CONTRACTS AND AGREEMENTS COST SHARING STORY ROAD STATE DIV OF HIGHWAYS CO-STATE AGMT 18 FAS COYOTE CREEK BRIDGES TO BAYSHORE HWY1/18/2012 12:00 AMSyTech Solutions, Inc2/6/2012 3:24 PMSACLA.0003.0627_00023745
20120206152326_001A19E3  CONTRACTS AND AGREEMENTS COST SHARING ST IMPV VARIOUS SAN JOSE CITY1/18/2012 12:00 AMSyTech Solutions, Inc2/6/2012 3:24 PMSACLA.0003.0627_00023746
20120206152326_001A19E8  CONTRACTS AND AGREEMENTS COST SHARING STREELIGHTS SAN JOSE CITY OF1/18/2012 12:00 AMSyTech Solutions, Inc2/6/2012 3:24 PMSACLA.0003.0627_00023748
20120206152326_001A19EE  CONTRACTS AND AGREEMENTS COST SHARING SUMMIT ROAD STATE DIV OF HWY FAS 81 BTW WOODWARDIA AND HALLS BRIDGE1/18/2012 12:00 AMSyTech Solutions, Inc2/6/2012 3:24 PMSACLA.0003.0627_00023752
20120206152326_001A19EC  CONTRACTS AND AGREEMENTS COST SHARING STREET STRIPING SAN JOSE CITY1/18/2012 12:00 AMSyTech Solutions, Inc2/6/2012 3:24 PMSACLA.0003.0627_00023753
20120206152326_001A19FA  CONTRACTS AND AGREEMENTS COST SHARING TRAFFIC SIGNALS SAN JOSE CITY OF1/18/2012 12:00 AMSyTech Solutions, Inc2/6/2012 3:24 PMSACLA.0003.0627_00023756
20120206152326_001A1A09  Tully RoadCONTRACTS AND AGREEMENTS COST SHARING TULLY ROAD SAN JOSE CITY/IMPV BTW MONTEREY RD AND SENTER RD1/18/2012 12:00 AMSyTech Solutions, Inc5/18/2018 2:19 PMSACLA.0003.0627_00023757
20120206152326_001A19F4  CONTRACTS AND AGREEMENTS COST SHARING TENTH STREET GILROY CITY BTW MONTEREY HWY AND PACHECO PASS ROAD1/18/2012 12:00 AMSyTech Solutions, Inc2/6/2012 3:24 PMSACLA.0003.0627_00023758
20120206152326_001A19F9  CONTRACTS AND AGREEMENTS COST SHARING TRAFFIC SIGNALS SAN JOSE CITY OF1/18/2012 12:00 AMSyTech Solutions, Inc2/6/2012 3:24 PMSACLA.0003.0627_00023759
20120206152326_001A1A08  Tully RoadCONTRACTS AND AGREEMENTS COST SHARING TULLY ROAD SAN JOSE CITY/BTW SO 7TH AND MONTEREY ROAD1/18/2012 12:00 AMSyTech Solutions, Inc5/18/2018 2:18 PMSACLA.0003.0627_00023760
20120206152326_001A1A00  CONTRACTS AND AGREEMENTS COST SHARING TRAFFIC SIGNALS SAN JOSE CITY/UNION CAMDEN UNION WOODWARD BASCOM CURTNER CAMDEN LEIGH1/18/2012 12:00 AMSyTech Solutions, Inc2/6/2012 3:24 PMSACLA.0003.0627_00023761
20120206152326_001A1A01  CONTRACTS AND AGREEMENTS COST SHARING TRIMBLE ROAD SAN JOSE CITY/BTW ENGR STATION 66 AND 50 AND O TOOLE AVE1/18/2012 12:00 AMSyTech Solutions, Inc2/6/2012 3:24 PMSACLA.0003.0627_00023762
20120206152326_001A19FC  CONTRACTS AND AGREEMENTS COST SHARING TRAFFIC SIGNALS SAN JOSE CITY/CONTROL OF SIGNALS IN JOINT JURISDICTIONS1/18/2012 12:00 AMSyTech Solutions, Inc2/6/2012 3:24 PMSACLA.0003.0627_00023763
20120206152326_001A1A0A  Umbarger RoadCONTRACTS AND AGREEMENTS COST SHARING UMBARGER ROAD GLADDING CERAMIC INSULATOR CO1/18/2012 12:00 AMSyTech Solutions, Inc5/18/2018 2:19 PMSACLA.0003.0627_00023764
20120206152326_001A1A0B  Umbarger RoadCONTRACTS AND AGREEMENTS COST SHARING UMBARGER ROAD SAN JOSE CITY/BTWN SENTER ROAD AND MONTEREY HIGHWAY1/18/2012 12:00 AMSyTech Solutions, Inc5/18/2018 2:19 PMSACLA.0003.0627_00023765
20120206152326_001A19F2  CONTRACTS AND AGREEMENTS COST SHARING TANTAU AVE CUPERTINO CITY OF1/18/2012 12:00 AMSyTech Solutions, Inc2/6/2012 3:24 PMSACLA.0003.0627_00023766
20120206152326_001A1A05  Trinidad DriveCONTRACTS AND AGREEMENTS COST SHARING TRINIDAD DRIVE SAN JOSE CITY OF1/18/2012 12:00 AMSyTech Solutions, Inc5/18/2018 2:17 PMSACLA.0003.0627_00023767
20120206152326_001A1A06  Tully RoadCONTRACTS AND AGREEMENTS COST SHARING TULLY ROAD SAN JOSE CITY BTW SO 7TH AND HWY 1011/18/2012 12:00 AMSyTech Solutions, Inc5/18/2018 2:17 PMSACLA.0003.0627_00023768
20120206152326_001A1A03  CONTRACTS AND AGREEMENTS COST SHARING TRIMBLE RD STATE DIV OF HWYS/SIGNALS AT INTERSECTION OF RT 51/18/2012 12:00 AMSyTech Solutions, Inc2/6/2012 3:24 PMSACLA.0003.0627_00023769
20120206152326_001A19FE  CONTRACTS AND AGREEMENTS COST SHARING TRAFFIC SIGNALS SAN JOSE CITY OF/MODIFICATION AND CHANNELIZATION AT 6 LOCATIONS1/18/2012 12:00 AMSyTech Solutions, Inc2/6/2012 3:24 PMSACLA.0003.0627_00023770
20120206152326_001A19F1  CONTRACTS AND AGREEMENTS COST SHARING SUMMIT ROAD STATE DIV OF HWY FAS 616 RT 5 AND WOODWARDIA1/18/2012 12:00 AMSyTech Solutions, Inc2/6/2012 3:24 PMSACLA.0003.0627_00023771
20120206152326_001A19F8  CONTRACTS AND AGREEMENTS COST SHARING TRAFFIC SIGNALS LOS GATOS AND CAMPBELL1/18/2012 12:00 AMSyTech Solutions, Inc2/6/2012 3:24 PMSACLA.0003.0627_00023772
20120206152326_001A19F5  CONTRACTS AND AGREEMENTS COST SHARING THORTON WAY SAN JOSE CITY OF1/18/2012 12:00 AMSyTech Solutions, Inc2/6/2012 3:24 PMSACLA.0003.0627_00023773
20120206152326_001A1A04  Trimble RoadCONTRACTS AND AGREEMENTS COST SHARING TRIMBLE ROAD STATE AND SAN JOSE CITY1/18/2012 12:00 AMSyTech Solutions, Inc5/18/2018 2:17 PMSACLA.0003.0627_00023774
20120206152326_001A1A10  Union AveCONTRACTS AND AGREEMENTS COST SHARING UNION AVENUE SAN JOSE CITY OF/BETWEEN BASCOM AND DRY CREEK1/18/2012 12:00 AMSyTech Solutions, Inc5/18/2018 2:19 PMSACLA.0003.0627_00023775
20120206152326_001A1A21  CONTRACTS AND AGREEMENTS COST SHARING VARIOUS STREETS SAN JOSE CITY OF/RESURFACING CAPITOL DISALVO AND GAY AVENUES1/18/2012 12:00 AMSyTech Solutions, Inc2/6/2012 3:24 PMSACLA.0003.0627_00023776
20120206152326_001A1A16  CONTRACTS AND AGREEMENTS COST SHARING VARIOUS STREETS LOS GATOS TOWN OF/RESURFACING BLOSSOM HILL AND LOS GATOS ALMADEN ROADS1/18/2012 12:00 AMSyTech Solutions, Inc2/6/2012 3:24 PMSACLA.0003.0627_00023777
20120206152326_001A1A24  CONTRACTS AND AGREEMENTS COST SHARING VARIOUS STREETS SAN JOSE CITY OF/RESURFACING PORTIONS OF STEVENS CREEK BLVD PEARL AVE MERIDIAN AND HAMILTON AVE1/18/2012 12:00 AMSyTech Solutions, Inc2/6/2012 3:24 PMSACLA.0003.0627_00023778
20120206152326_001A1A1C  CONTRACTS AND AGREEMENTS COST SHARING VARIOUS STREETS SAN JOSE CITY OF/CASCOM AVE AND WOODWARD AVE TULLY RD AND SENTER RD TULLY RD AND MCLAUGHLIN AVE1/18/2012 12:00 AMSyTech Solutions, Inc2/6/2012 3:24 PMSACLA.0003.0627_00023779
20120206152326_001A1A27  CONTRACTS AND AGREEMENTS COST SHARING VARIOUS STREETS SAN JOSE CITY OF/RESURFACING PORTIONS OF SAN CARLOS STREET ET AL1/18/2012 12:00 AMSyTech Solutions, Inc2/6/2012 3:24 PMSACLA.0003.0627_00023780
20120206152326_001A1A18  CONTRACTS AND AGREEMENTS COST SHARING VARIOUS STREETS MORGAN HILL CITY OF1/18/2012 12:00 AMSyTech Solutions, Inc2/6/2012 3:24 PMSACLA.0003.0627_00023781
20120206152326_001A1A1A  CONTRACTS AND AGREEMENTS COST SHARING VARIOUS STREETS PALO ALTO CITY OF/HILLVIEW/FOOTHILL HILLVIEW/MIRANDA/ARASTRADERO/FOOTHILL/MIRANDA1/18/2012 12:00 AMSyTech Solutions, Inc2/6/2012 3:24 PMSACLA.0003.0627_00023782
20120206152326_001A1A15  CONTRACTS AND AGREEMENTS COST SHARING VARIOUS ST LOS GATOS TOWN OF/RESURFACING SHANNON AND OLD BLOSSOM HILL ROADS1/18/2012 12:00 AMSyTech Solutions, Inc2/6/2012 3:24 PMSACLA.0003.0627_00023783
20120206152326_001A1A13  Union AveCONTRACTS AND AGREEMENTS COST SHARING UNION AVENUE STATE DIV OF HWY/COUNTY STATE AGMT 23 SIGNALS INTERSECTION SJ-LOS GATOS RD1/18/2012 12:00 AMSyTech Solutions, Inc5/18/2018 2:19 PMSACLA.0003.0627_00023784
20120206152326_001A1A28  CONTRACTS AND AGREEMENTS COST SHARING VARIOUS STREETS SAN JOSE CITY OF/SAN TOMAS AQUINO RD STELLING AVE CURTNER AVE1/18/2012 12:00 AMSyTech Solutions, Inc2/6/2012 3:24 PMSACLA.0003.0627_00023785
20120206152326_001A1A0C  Union AveCONTRACTS AND AGREEMENTS COST SHARING UNION AVENUE SAN JOSE CITY AND UNION SCH DIST/SIGNALS PARKER ELEMENTARY SCHOOL1/18/2012 12:00 AMSyTech Solutions, Inc5/18/2018 2:19 PMSACLA.0003.0627_00023786
20120206152326_001A1A0E  Union AveCONTRACTS AND AGREEMENTS COST SHARING UNION AVENUE STATE DIV OF HWY/COUNTY STATE AGMT 11 FAS BTW LOS GATOS ALMADEN RD AND RT 51/18/2012 12:00 AMSyTech Solutions, Inc5/18/2018 2:19 PMSACLA.0003.0627_00023787
20120206152326_001A1A12  Union AveCONTRACTS AND AGREEMENTS COST SHARING UNION AVE SAN JOSE CITY/CAMPBELL AVE TO BASCOM CO1/18/2012 12:00 AMSyTech Solutions, Inc5/18/2018 2:19 PMSACLA.0003.0627_00023788
20120206152326_001A1A22  CONTRACTS AND AGREEMENTS COST SHARING VARIOUS STREETS SAN JOSE CITY OF/REDMOND AVE AND MERIDIAN CAMDEN AVE AND COLEMAN RD1/18/2012 12:00 AMSyTech Solutions, Inc2/6/2012 3:24 PMSACLA.0003.0627_00023789
20120206152326_001A1A1E  CONTRACTS AND AGREEMENTS COST SHARING VARIOUS STREETS SAN JOSE CITY OF/PORTIONS OF MCKEE ROAD MOORPARK AVENUE AND ALMADEN ROAD1/18/2012 12:00 AMSyTech Solutions, Inc2/6/2012 3:24 PMSACLA.0003.0627_00023790
20120206152326_001A1A42  Williams St.CONTRACTS AND AGREEMENTS COST SHARING WILLIAMS ST LOS GATOS TOWN/MATCHING CREDIT FOR NON EXPRESSWAY PROJECT1/18/2012 12:00 AMSyTech Solutions, Inc5/18/2018 2:24 PMSACLA.0003.0627_00023791
20120206152326_001A1A31  CONTRACTS AND AGREEMENTS COST SHARING WALDO ROAD CAMPBELL CITY1/18/2012 12:00 AMSyTech Solutions, Inc2/6/2012 3:24 PMSACLA.0003.0627_00023792
20120206152326_001A1A45  Williams StCONTRACTS AND AGREEMENTS COST SHARING WILLIAMS ST AND ROBERT RD/LOS GATOS TOWN1/18/2012 12:00 AMSyTech Solutions, Inc5/18/2018 2:24 PMSACLA.0003.0627_00023793
20120206152326_001A1A35  CONTRACTS AND AGREEMENTS COST SHARING WEST SAN CARLOS STREET/SAN JOSE CITY OF/INTERSECTION IMPUTS AT CAHILL ST1/18/2012 12:00 AMSyTech Solutions, Inc2/6/2012 3:24 PMSACLA.0003.0627_00023794
20120206152326_001A1A41  Williams RoadCONTRACTS AND AGREEMENTS COST SHARING WILLIAMS ROAD SAN JOSE CITY/IMPV WILLIAMS RD NEAR OAKMONT PL1/18/2012 12:00 AMSyTech Solutions, Inc5/18/2018 2:22 PMSACLA.0003.0627_00023795
20120206152326_001A1A47  Winchester BlvdCONTRACTS AND AGREEMENTS COST SHARING WINCHESTER BLVD CAMPBELL CITY1/18/2012 12:00 AMSyTech Solutions, Inc5/18/2018 2:24 PMSACLA.0003.0627_00023796
20120206152326_001A1A2D  CONTRACTS AND AGREEMENTS COST SHARING CARIOUS ROADS SANTA CLARA CITY OF/FOREST AVE AND CECIL ST RESURFACING1/18/2012 12:00 AMSyTech Solutions, Inc2/6/2012 3:24 PMSACLA.0003.0627_00023797
20120206152326_001A1A2E  CONTRACTS AND AGREEMENTS COST SHARING VOSS ETC CUPERTINO/RESURFACING1/18/2012 12:00 AMSyTech Solutions, Inc2/6/2012 3:24 PMSACLA.0003.0627_00023798
20120206152326_001A1A3E  White RoadCONTRACTS AND AGREEMENTS COST SHARING WHITE ROAD SAN JOSE CITY OF/ALUM ROCK AVENUE TO MCKEE ROAD1/18/2012 12:00 AMSyTech Solutions, Inc5/18/2018 2:21 PMSACLA.0003.0627_00023799
20120206152326_001A1A32  CONTRACTS AND AGREEMENTS COST SHARING WALSH AVE AND SAN TOMAS EXPSWY INTERSECTION SANTA CLARA CITY OF1/18/2012 12:00 AMSyTech Solutions, Inc2/6/2012 3:24 PMSACLA.0003.0627_00023800
20120206152326_001A1A37  CONTRACTS AND AGREEMENTS COST SHARING WESTMONT AVE SAN JOSE CITY OF/EXTENSION TO QUITO ROAD1/18/2012 12:00 AMSyTech Solutions, Inc2/6/2012 3:24 PMSACLA.0003.0627_00023801
20120206152326_001A1A46  Williams StCONTRACTS AND AGREEMENTS COST SHARING WILLIAMS ST SAN JOSE CITY/WESTERN PACIFIC RAILROAD CROSSING1/18/2012 12:00 AMSyTech Solutions, Inc5/18/2018 2:24 PMSACLA.0003.0627_00023802
20120206152326_001A1A48  Winchester BlvdCONTRACTS AND AGREEMENTS COST SHARING WINCHESTER BLVD CAMPBELL CITY OF/SIDEWALK CONSTRUCTION1/18/2012 12:00 AMSyTech Solutions, Inc5/18/2018 2:24 PMSACLA.0003.0627_00023803
20120206152326_001A1A38  Westmont AveCONTRACTS AND AGREEMENTS COST SHARING WESTMONT AVENUE SAN JOSE CITY AND S C FLOOD CONTROL AND WATER DIST AND CAMPBELL UNION HI SCH DIST/BRIDGE ST IMPV CHANNEL IMPV AND FENCING AT WESTMONT AVE AND SAN TOMAS CRK1/18/2012 12:00 AMSyTech Solutions, Inc5/18/2018 2:20 PMSACLA.0003.0627_00023804
20120206152326_001A1A3C  CONTRACTS AND AGREEMENTS COST SHARING WHEELCHAIR RAMPS SAN JOSE CITY/VARIOUS STREET INTERSECTIONS UNDER JOINT CITY/COUNTY JURISDICTION1/18/2012 12:00 AMSyTech Solutions, Inc2/6/2012 3:24 PMSACLA.0003.0627_00023805
20120206152326_001A1A40  White RoadCONTRACTS AND AGREEMENTS COST SHARING WHITE ROAD SAN JOSE CITY OF/ALUM ROCK AVE TO STORY RD1/18/2012 12:00 AMSyTech Solutions, Inc5/18/2018 2:21 PMSACLA.0003.0627_00023806
20120206152326_001A1A2A  CONTRACTS AND AGREEMENTS COST SHARING VARIOUS STREETS SAN JOSE CITY OF/SIGNALIZATION AND INTERSECTION IMPROVEMENTS AT 7 LOCATIONS1/18/2012 12:00 AMSyTech Solutions, Inc2/6/2012 3:24 PMSACLA.0003.0627_00023807
20120206152326_001A1A33  CONTRACTS AND AGREEMENTS COST SHARING WEST PAC R R XING/SAN JOSE CITY OF/WESTERN PACIFIC RAILROAD CROSSING AT PARK AVENUE1/18/2012 12:00 AMSyTech Solutions, Inc2/6/2012 3:24 PMSACLA.0003.0627_00023808
20120206152326_001A1A2C  CONTRACTS AND AGREEMENTS COST SHARING VARIOUS STREETS SAN JOSE CITY OF/STEVENS CREEK WEST SAN CARLOS AT BELLEROSE BASCOM LELAND LEIGH MERIDIAN RACE AND LINCOLN1/18/2012 12:00 AMSyTech Solutions, Inc2/6/2012 3:24 PMSACLA.0003.0627_00023809
20120206152326_001A1A68  CONTRACTS AND AGREEMENTS EXPRESSWAYS ALMADEN/KELEZ ROBERT1/18/2012 12:00 AMSyTech Solutions, Inc2/6/2012 3:24 PMSACLA.0003.0627_00023810
20120206152326_001A1A52  Winchester BlvdCONTRACTS AND AGREEMENTS COST SHARING WINCHESTER BLVD SANTA CLARA CITY OF/STEVENS CREEK BLVD TO BELLOMY ST IMPROVEMENT1/18/2012 12:00 AMSyTech Solutions, Inc5/18/2018 2:22 PMSACLA.0003.0627_00023811
20120206152326_001A1A4E  Winchester BlvdCONTRACTS AND AGREEMENTS COST SHARING WINCHESTER BLVD SAN JOSE CITY/IMPV BTW RIDDLE RD AND N OF MOORPARK AVE1/18/2012 12:00 AMSyTech Solutions, Inc5/18/2018 2:25 PMSACLA.0003.0627_00023812
20120206152326_001A1A5F  CONTRACTS AND AGREEMENTS PROF SERVICES ENGINEERING/RUTH AND GOING/ALMADEN EXPRESSWAY UN IV1/18/2012 12:00 AMSyTech Solutions, Inc2/6/2012 3:24 PMSACLA.0003.0627_00023813
20120206152326_001A1A5C  CONTRACTS AND AGREEMENTS EXPRESSWAYS ALMADEN/A-M COMPANY LANDSCAPING AND MAINTENANCE1/18/2012 12:00 AMSyTech Solutions, Inc2/6/2012 3:24 PMSACLA.0003.0627_00023814
20120206152326_001A1A65  CONTRACTS AND AGREEMENTS EXPRESSWAYS ALMADEN/DAVIDSON KAVANAGH ET AL/SITE IMPROVEMENTS ALMADEN LAKES1/18/2012 12:00 AMSyTech Solutions, Inc2/6/2012 3:24 PMSACLA.0003.0627_00023815
20120206152326_001A1A54  CONTRACTS AND AGREEMENTS COST SHARING WINCHESTER BLVD STATE DIV OF HWYS/CO STATE AGMT 15 FAS PROJ S-996 (1) BTW WILD WAY AND DAVES AVENUE1/18/2012 12:00 AMSyTech Solutions, Inc2/6/2012 3:24 PMSACLA.0003.0627_00023816
20120206152326_001A1A60  CONTRACTS AND AGREEMENTS PROF SERVICES ENGINEERING/RUTH AND GOING/ALMADEN EXPWY UN 6 BTW GRAYSTONE LN AND MCKEAN RD1/18/2012 12:00 AMSyTech Solutions, Inc2/6/2012 3:24 PMSACLA.0003.0627_00023817
20120206152326_001A1A4A  Winchester BlvdCONTRACTS AND AGREEMENTS COST SHARING WINCHESTER BLVD LOS GATOS MONTE SERENO/IMPV WINCHESTER BLVD AND LARK AVE FROM LOS GATOS CREEK TO DAVES AVE1/18/2012 12:00 AMSyTech Solutions, Inc5/18/2018 2:24 PMSACLA.0003.0627_00023818
20120206152326_001A1A69  CONTRACTS AND AGREEMENTS EXPRESSWAYS ALMADEN/SAFEWAY STORES1/18/2012 12:00 AMSyTech Solutions, Inc2/6/2012 3:24 PMSACLA.0003.0627_00023819
20120206152326_001A1A50  Winchester BlvdCONTRACTS AND AGREEMENTS COST SHARING WINCHESTER BLVD SAN JOSE CITY/INSTALL OF TRAFFIC CONTROL SIGNALS1/18/2012 12:00 AMSyTech Solutions, Inc5/18/2018 2:25 PMSACLA.0003.0627_00023820
20120206152326_001A1A58  CONTRACTS AND AGREEMENTS COST SHARING WOLFE ROAD SUNNYVALE CITY/SIGNALS AT RED AVENUE1/18/2012 12:00 AMSyTech Solutions, Inc2/6/2012 3:24 PMSACLA.0003.0627_00023821
20120206152326_001A1A59  CONTRACTS AND AGREEMENTS COST SHARING WREN AVE ET AL GILROY CITY OF/RESURFACING OF WREN AVE RONAN AVE/TATUM AVE AND KERN AVE1/18/2012 12:00 AMSyTech Solutions, Inc2/6/2012 3:24 PMSACLA.0003.0627_00023822
20120206152326_001A1A4D  Winchester BlvdCONTRACTS AND AGREEMENTS COST SHARING WINCHESTER BLVD SAN JOSE CITY/IMPV BTW MOORPARK AVE CITY OF CAMPBELL1/18/2012 12:00 AMSyTech Solutions, Inc5/18/2018 2:25 PMSACLA.0003.0627_00023823
20120206152326_001A1A55  CONTRACTS AND AGREEMENTS COST SHARING WOLFE ROAD SUNNYVALE CITY/INTERSECTION WOLFE ROAD AND EL CAMINO WOLFE RD AND FREMONT AVE1/18/2012 12:00 AMSyTech Solutions, Inc2/6/2012 3:24 PMSACLA.0003.0627_00023824
20120206152326_001A1A62  CONTRACTS AND AGREEMENTS EXPRESSWAYS ALMADEN/DAVIDSON CHARLES W/LANDSCAPE AND MAINTENANCE AGREEMENT1/18/2012 12:00 AMSyTech Solutions, Inc2/6/2012 3:24 PMSACLA.0003.0627_00023825
20120206152326_001A1A5B  CONTRACTS AND AGREEMENTS COST SHARING ZANKER ROAD SAN JOSE CITY AND STATE/INSTALL SIGNALS SAFETY LIGHTING AND FLASHING SIGNALS AT RT 2371/18/2012 12:00 AMSyTech Solutions, Inc2/6/2012 3:24 PMSACLA.0003.0627_00023826
20120206152326_001A1A6B  CONTRACTS AND AGREEMENTS EXPRESSWAYS ALMADEN EXPRESSWAY/SAN JOSE CITY/BTW HILLSDALE AVE AND MCKEAN RD1/18/2012 12:00 AMSyTech Solutions, Inc2/6/2012 3:24 PMSACLA.0003.0627_00023827
20120206152326_001A1A66  CONTRACTS AND AGREEMENTS EXPRESSWAYS ALMADEN/GREAT WESTERN SAVINGS/LANDSCAPE IMPV AT BLOSSOM HILL RD1/18/2012 12:00 AMSyTech Solutions, Inc2/6/2012 3:24 PMSACLA.0003.0627_00023828
20120206152326_001A1EF9  ALMADEN ROAD CONTRACTS AND AGREEMENTS COST SHARING ALMADEN ROAD S C CO FLOOD CONTROL DIST CULVERTS OVER GREYSTONE CREEK1/18/2012 12:00 AMSyTech Solutions, Inc5/18/2018 2:35 PMSACLA.0003.0627_00043829
20120206152326_001A1EF8  Almaden RoadCONTRACTS AND AGREEMENTS COST SHARING ALMADEN ROAD S C CO FLOOD CONTROL DIST CULVERTS OVER GOLF CREEK1/18/2012 12:00 AMSyTech Solutions, Inc5/18/2018 2:35 PMSACLA.0003.0627_00043830
20120206152326_001A1A70  CONTRACTS AND AGREEMENTS EXPRESSWAYS CAPITOL INVESTMENT PROPERTIES/LANDSCAPING1/18/2012 12:00 AMSyTech Solutions, Inc2/6/2012 3:24 PMSACLA.0003.0627_00023831
20120206152326_001A1EF3  Almaden Plaza WayCONTRACTS AND AGREEMENTS COST SHARING ALMADEN PLAZA WAY/BROTHERS INTERNATIONAL CORP1/18/2012 12:00 AMSyTech Solutions, Inc5/18/2018 2:35 PMSACLA.0003.0627_00043832
20120206152326_001A1A72  Capitol ExpwyCONTRACTS AND AGREEMENTS EXPRESSWAYS CAPITOL/HOUGHTON LOWELL1/18/2012 12:00 AMSyTech Solutions, Inc5/18/2018 2:25 PMSACLA.0003.0627_00023833
20120206152326_001A1A77  Capitol ExpwyCONTRACTS AND AGREEMENTS EXPRESSWAYS CAPITOL/ARCADIA DEVELOPMENT COMPANY/IMPROVEMENTS AT SNELL AVE1/18/2012 12:00 AMSyTech Solutions, Inc5/18/2018 2:25 PMSACLA.0003.0627_00023834
20120206152326_001A1A78  Capitol ExpwyCONTRACTS AND AGREEMENTS EXPRESSWAYS CAPITOL/A E PROPERTIES INC/BETWEEN SILVER CREEK AND ABORN RDS1/18/2012 12:00 AMSyTech Solutions, Inc5/18/2018 2:24 PMSACLA.0003.0627_00023835
20120206152326_001A1A73  Capitol ExpwyCONTRACTS AND AGREEMENTS EXPRESSWAYS CAPITOL/CAPITOL III ASSOCIATES/IMP INCL TRAFFIC SIGNAL AT VISTA PARK DRIVE1/18/2012 12:00 AMSyTech Solutions, Inc5/18/2018 2:25 PMSACLA.0003.0627_00023836
20120206152326_001A1EF6  Almaden RoadCONTRACTS AND AGREEMENTS COST SHARING ALMADEN ROAD SAN JOSE CITY OF WIDENING AND RELOCATION1/18/2012 12:00 AMSyTech Solutions, Inc5/18/2018 2:35 PMSACLA.0003.0627_00043837
20120206152326_001A1A71  Capitol ExpwyCONTRACTS AND AGREEMENTS EXPRESSWAYS CAPITOL/MANRAO KENNETH S1/18/2012 12:00 AMSyTech Solutions, Inc5/18/2018 2:25 PMSACLA.0003.0627_00023838
20120206152326_001A1A6C  CONTRACTS AND AGREEMENTS EXPRESSWAYS ALMADEN EXPWY SAN JOSE CITY/BTW HILLSDALE AVE AND COLEMAN RD1/18/2012 12:00 AMSyTech Solutions, Inc2/6/2012 3:24 PMSACLA.0003.0627_00023839
20120206152326_001A1EEB  Almaden ExpwyCONTRACTS AND AGREEMENTS COST SHARING ALMADEN EXPWY STATE DIV HWYS AND SAN JOSE CITY FAS AGMT UE 65-3 BTW COLEMAN RD AND HILLSDALE AVE1/18/2012 12:00 AMSyTech Solutions, Inc5/18/2018 2:35 PMSACLA.0003.0627_00043840
20120206152326_001A1A74  Capitol ExpwyCONTRACTS AND AGREEMENTS EXPRESSWAYS CAPITOL/B-W CONSTRUCTION COMPANY/LANDSCAPE AND MAINTENANCE1/18/2012 12:00 AMSyTech Solutions, Inc5/18/2018 2:25 PMSACLA.0003.0627_00023841
20120206152326_001A1A76  Capitol ExpwyCONTRACTS AND AGREEMENTS EXPRESSWAYS CAPITOL EXPWY/SAN JOSE CITY/BTW NARVAEZ RD AND TUERS RD1/18/2012 12:00 AMSyTech Solutions, Inc5/18/2018 2:25 PMSACLA.0003.0627_00023842
20120206152326_001A1EFA  ALMADEN ROAD CONTRACTS AND AGREEMENTS COST SHARING ALMADEN ROAD S C CO FLOOD CONTROL DIST ADJACENT TO GUADALUPE RIVER1/18/2012 12:00 AMSyTech Solutions, Inc5/18/2018 2:35 PMSACLA.0003.0627_00043843
20120206152326_001A1A6E  CONTRACTS AND AGREEMENTS EXPRESSWAYS ALMADEN/SAN JOSE CITY OF/TEMPORARY MEDIAN OPENING AT MCINTOSH CREEK DRIVE1/18/2012 12:00 AMSyTech Solutions, Inc2/6/2012 3:24 PMSACLA.0003.0627_00023844
20120206152326_001A1A7F  GENERAL1/18/2012 12:00 AMSyTech Solutions, Inc2/6/2012 3:26 PMSACLA.0003.0627_00053845
20120206152326_001A1EF0  Almaden ExpwyCONTRACTS AND AGREEMENTS COST SHARING ALMADEN EXPRESSWAY STATE DIVISION OF HWYS AND SAN JOSE CITY FAS AGMT UE 75-10 BTW 600 S/BLOSSOM HILL ROAD TO CAPITOL EXPRESSWAY1/18/2012 12:00 AMSyTech Solutions, Inc5/18/2018 2:35 PMSACLA.0003.0627_00043846
20120206152326_001A1EFB  ALMADEN ROADCONTRACTS AND AGREEMENTS COST SHARING ALMADEN RD STATE DIVISION OF HWYS CO STATE AGMT 20 FAS SURFACING AND SPRR OVERHEAD1/18/2012 12:00 AMSyTech Solutions, Inc5/18/2018 2:35 PMSACLA.0003.0627_00043847
20120206152326_001A1EFC  CONTRACTS AND AGREEMENTS COST SHARING ALMADEN RD STATE DIV OF HWYS CO STATE AGMT 21 FAS CURTNER AVE TO REDBIRD DR1/18/2012 12:00 AMSyTech Solutions, Inc2/6/2012 3:25 PMSACLA.0003.0627_00043848
20120206152326_001A1F05  CONTRACTS AND AGREEMENTS COST SHARING BASCOM AVENUE CAMPBELL CITY OF FROM UNION AVE TO NATIONAL AVE1/18/2012 12:00 AMSyTech Solutions, Inc2/6/2012 3:25 PMSACLA.0003.0627_00043849
20120206152326_001A1F01  CONTRACTS AND AGREEMENTS COST SHARING AUZERAIS STREET SAN JOSE CITY SIGNALS RACE ST AND AUZERAIS AVE1/18/2012 12:00 AMSyTech Solutions, Inc2/6/2012 3:25 PMSACLA.0003.0627_00043850
20120206152326_001A1F00  CONTRACTS AND AGREEMENTS COST SHARING ARNOLD DR ETC GILROY CITY OF RESURFACING VARIOUS STREETS AND PARKING LOTS1/18/2012 12:00 AMSyTech Solutions, Inc2/6/2012 3:25 PMSACLA.0003.0627_00043851
20120206152326_001A1F0A  CONTRACTS AND AGREEMENTS COST SHARING BASCOM AVENUE LOS GATOS TOWN INTERSECTION LOS GATOS ALMADEN RD1/18/2012 12:00 AMSyTech Solutions, Inc2/6/2012 3:25 PMSACLA.0003.0627_00043852
20120206152326_001A1F0B  CONTRACTS AND AGREEMENTS COST SHARING BASCOM AVENUE SAN JOSE CITY BTW LINDAIRE AVE AND 1000 N OF FRUITDALE AVE1/18/2012 12:00 AMSyTech Solutions, Inc2/6/2012 3:25 PMSACLA.0003.0627_00043853
20120206152326_001A1F09  CONTRACTS AND AGREEMENTS COST SHARING BASCOM AVE LOS GATOS TOWN OF CAMINO DEL SOL TO 300 SO OF SHANNON RD1/18/2012 12:00 AMSyTech Solutions, Inc2/6/2012 3:25 PMSACLA.0003.0627_00043854
20120206152326_001A1F02  CONTRACTS AND AGREEMENTS COST SHARING BAILEY AVENUE IBM CORPORATION 4400 FT W OF SANTA TERESA BLVD TO SANTA TERESA BLVD1/18/2012 12:00 AMSyTech Solutions, Inc2/6/2012 3:25 PMSACLA.0003.0627_00043855
20120206152326_001A1F03  CONTRACTS AND AGREEMENTS COST SHARING BASCOM AVENUE CAMPBELL CITY ACQUISITION OF LAND1/18/2012 12:00 AMSyTech Solutions, Inc2/6/2012 3:25 PMSACLA.0003.0627_00043856
20120206152326_001A1F0C  BASCOM AVENUECONTRACTS AND AGREEMENTS COST SHARING BASCOM AVENUE SAN JOSE CITY BTW UNION AND WEST VALLEY FREEWAY1/18/2012 12:00 AMSyTech Solutions, Inc5/18/2018 2:35 PMSACLA.0003.0627_00043857
20120206152326_001A1EFF  CONTRACTS AND AGREEMENTS COST SHARING ARASTRADERO RD STATE DIV OF HWY COOP PROJECT 11 ARASTRADERO CHARLESTON RDS1/18/2012 12:00 AMSyTech Solutions, Inc2/6/2012 3:25 PMSACLA.0003.0627_00043858
20120206152326_001A1F08  CONTRACTS AND AGREEMENTS COST SHARING BASCOM AVENUE LOS GATOS TOWN BTW LARK AVE AND SHANNON ROAD1/18/2012 12:00 AMSyTech Solutions, Inc2/6/2012 3:25 PMSACLA.0003.0627_00043859
20120206152326_001A1F0D  BASCOM AVENUECONTRACTS AND AGREEMENTS COST SHARING BASCOME AVENUE SAN JOSE CITY BTW WEST SAN CARLOS ST AND HAMILTON AVE1/18/2012 12:00 AMSyTech Solutions, Inc5/18/2018 2:35 PMSACLA.0003.0627_00043860
20120206152326_001A1F04  CONTRACTS AND AGREEMENTS COST SHARING BASCOM AVENUE CAMPBELL CITY FROM LOS GATOS CRK TO HAMILTON AVE1/18/2012 12:00 AMSyTech Solutions, Inc2/6/2012 3:25 PMSACLA.0003.0627_00043861
20120206152326_001A1F0F  BASCOM AVENUECONTRACTS AND AGREEMENTS COST SHARING BASCOM AVENUE SAN JOSE CITY OF AND LOS GATOS SIGNALIZATION EQUIPMENT AT SOUTH BASCOM AVE AND SAMARITAN DR1/18/2012 12:00 AMSyTech Solutions, Inc5/18/2018 2:37 PMSACLA.0003.0627_00043862
20120206152326_001A1EFE  CONTRACTS AND AGREEMENTS COST SHARING ALUM ROCK AVE STATE DIV OF HWY IMPVT AND STORM DRAINAGE FACILITIES BTW WHITE RD AND MT HAMILTON RD1/18/2012 12:00 AMSyTech Solutions, Inc2/6/2012 3:25 PMSACLA.0003.0627_00043863
20120206152326_001A1EFD  C AND A COST SHARING ALMADEN EXPWY TRAFFIC AUTHORITY1/18/2012 12:00 AMSyTech Solutions, Inc2/6/2012 3:25 PMSACLA.0003.0627_00043864
20120206152326_001A1F0E  BASCOM AVENUECONTRACTS AND AGREEMENTS COST SHARING BASCOM AVENUE SAN JOSE CITY OF TRAFFIC SIGNALS AT FRUITDALE AVENUE1/18/2012 12:00 AMSyTech Solutions, Inc5/18/2018 2:36 PMSACLA.0003.0627_00043865
20120206152326_001A1F10  BASCOM AVENUECONTRACTS AND AGREEMENTS COST SHARING BASCOM AVENUE SANITATION DISTRICT 4 BTWN SAN CARLOS ST AND BASCOM BTWN APRICOT AVE AND UNION AVE WILLOW UNION II C AND D TRUNK SEWER1/18/2012 12:00 AMSyTech Solutions, Inc5/18/2018 2:37 PMSACLA.0003.0627_00043866
20120206152326_001A1F06  CONTRACTS AND AGREEMENTS COST SHARING BASCOM AVENUE EQUIREAL DEVELOPMENT CORPORATION TRAFFIC SIGNALS BASCOM/RENOVA DR1/18/2012 12:00 AMSyTech Solutions, Inc2/6/2012 3:25 PMSACLA.0003.0627_00043867
20120206152326_001A1F07  CONTRACTS AND AGREEMENTS COST SHARING BASCOM AVENUE CAMPBELL CITY LOS GATOS CRK TO A PT 400 S/LY FROM APRICOT AVENUE1/18/2012 12:00 AMSyTech Solutions, Inc2/6/2012 3:25 PMSACLA.0003.0627_00043868
20120206152326_001A1F21  CONTRACTS AND AGREEMENTS COST SHARING BLOSSOM HILL RD LOS GATOS TOWN OF BLOSSOM HILL SCHOOL TO CAMINO DEL CERRO1/18/2012 12:00 AMSyTech Solutions, Inc2/6/2012 3:25 PMSACLA.0003.0627_00043869
20120206152326_001A1F16  CONTRACTS AND AGREEMENTS COST SHARING BASCOM BRANHAM AND WILLO SAN JOSE CITY OF BASCOM BTW HEATHERDALE AND SAN CARLOS BRANHAM BTW LEIGH AND ALMADEN EXPWY WILLOW BTW GUADALUPE RIVER AND NORMAN AVE1/18/2012 12:00 AMSyTech Solutions, Inc2/6/2012 3:25 PMSACLA.0003.0627_00043870
20120206152326_001A1F1D  CONTRACTS AND AGREEMENTS COST SHARING BLANEY AVE SAN JOSE AND CUPERTINO CITIES RESURFACING PORTION FROM BOLLINGER RD TO PACIFIC DR1/18/2012 12:00 AMSyTech Solutions, Inc2/6/2012 3:25 PMSACLA.0003.0627_00043871
20120206152326_001A1F18  BERNARDO AVECONTRACTS AND AGREEMENTS COST SHARING BERNARDO AVE STATE DIV OF HWYS TRAFFIC SIGNALS AT EL CAMINO REAL1/18/2012 12:00 AMSyTech Solutions, Inc5/18/2018 2:37 PMSACLA.0003.0627_00043872
20120206152326_001A1F19  BERNAL ROADCONTRACTS AND AGREEMENTS COST SHARING BERNAL ROAD SAN JOSE CITY OF INTERSECTION OF MONTEREY HWY AND SO PACIFIC RAILROAD1/18/2012 12:00 AMSyTech Solutions, Inc5/18/2018 2:37 PMSACLA.0003.0627_00043873
20120206152326_001A1F22  CONTRACTS AND AGREEMENTS COST SHARING BLOSSOM HILL RD LOS GATOS TOWN SHANNON RD SHORT RD AND BLOSSOM HILL RD TO SAN JOSE AVE TO HARWOOD AVE1/18/2012 12:00 AMSyTech Solutions, Inc2/6/2012 3:25 PMSACLA.0003.0627_00043874
20120206152326_001A1F1C  CONTRACTS AND AGREEMENTS COST SHARING BLANEY AVENUE CUPERTINO CITY OF ROUTE 280 TO FOREST AVENUE1/18/2012 12:00 AMSyTech Solutions, Inc2/6/2012 3:25 PMSACLA.0003.0627_00043875
20120206152326_001A1F1B  BERRYESSA ROADCONTRACTS AND AGREEMENTS COST SHARING BERRYESSA ROAD SAN JOSE CITY BTW RT 101 AND RT 6801/18/2012 12:00 AMSyTech Solutions, Inc5/18/2018 2:37 PMSACLA.0003.0627_00043876
20120206152326_001A1F13  BASCOM AVENUECONTRACTS AND AGREEMENTS COST SHARING BASCOM AVE SO LOS GATOS TOWN INTERSECTION SHANNON RD AND ROBERTS RD1/18/2012 12:00 AMSyTech Solutions, Inc5/18/2018 2:37 PMSACLA.0003.0627_00043877
20120206152326_001A1F20  CONTRACTS AND AGREEMENTS COST SHARING BLOOMFIELD AVE STATE DEPT OF HWYS PROJ S-991 (1) AGMT NO 101/18/2012 12:00 AMSyTech Solutions, Inc2/6/2012 3:25 PMSACLA.0003.0627_00043878
20120206152326_001A1F14  BASCOM AVENUECONTRACTS AND AGREEMENTS COST SHARING BASCOM AVE SO SAN JOSE CITY BTW CAMINO DEL SOL AND UNION AVE1/18/2012 12:00 AMSyTech Solutions, Inc5/18/2018 2:37 PMSACLA.0003.0627_00043879
20120206152326_001A1F23  CONTRACTS AND AGREEMENTS COST SHARING BLOSSOM HILL RD LOS GATOS TOWN OF SPOT SAFETY IMPROVEMENTS1/18/2012 12:00 AMSyTech Solutions, Inc2/6/2012 3:25 PMSACLA.0003.0627_00043880
20120206152326_001A1F12  BASCOM AVENUECONTRACTS AND AGREEMENTS COST SHARING BASCOM AVE STATE OF CALIF BTW WEST SAN CARLOS ST AND HAMILTON AVE AND BTW APRICOT AVE AND UNION AVE1/18/2012 12:00 AMSyTech Solutions, Inc5/18/2018 2:37 PMSACLA.0003.0627_00043881
20120206152326_001A1F17  BELLEROSE DRIVECONTRACTS AND AGREEMENTS COST SHARING BELLEROSE DRIVE SAN JOSE CITY INTERSECTION OF STEVENS CRK BLVD1/18/2012 12:00 AMSyTech Solutions, Inc5/18/2018 2:37 PMSACLA.0003.0627_00043882
20120206152326_001A1F1A  BERNARDO AVECONTRACTS AND AGREEMENTS COST SHARING BERNARDO AVENUE SUNNYVALE CITY SIGNALS AT FREMONT RD1/18/2012 12:00 AMSyTech Solutions, Inc5/18/2018 2:37 PMSACLA.0003.0627_00043883
20120206152326_001A1F1F  CONTRACTS AND AGREEMENTS COST SHARING BLOOMFIELD AVE SANTA CLARA VALLEY WATER DIST1/18/2012 12:00 AMSyTech Solutions, Inc2/6/2012 3:25 PMSACLA.0003.0627_00043884
20120206152326_001A1F15  BASCOM AVENUECONTRACTS AND AGREEMENTS COST SHARING BASCOM AVE SO S J CITY AND LOS GATOS TOWN SIGNALS AT SAMARITAN DRIVE1/18/2012 12:00 AMSyTech Solutions, Inc5/18/2018 2:37 PMSACLA.0003.0627_00043885
20120206152326_001A1F11  BASCOM AVENUECONTRACTS AND AGREEMENTS COST SHARING BASCOM AVENUE STATE DIV HWYS AND SAN JOSE CITY FAS AGMT UE-71-17 BTW UNION AND NATIONAL AVENUES1/18/2012 12:00 AMSyTech Solutions, Inc5/18/2018 2:37 PMSACLA.0003.0627_00043886
20120206152326_001A1F1E  CONTRACTS AND AGREEMENTS COST SHARING BLANEY ROAD SAN JOSE AND CUPERTINO CITIES SIGNALS AT BOLLINGER ROAD1/18/2012 12:00 AMSyTech Solutions, Inc2/6/2012 3:25 PMSACLA.0003.0627_00043887
20120206152326_001A1F25  CONTRACTS AND AGREEMENTS COST SHARING BLOSSOM HILL RD SAN JOSE CITY SHANNON RD SHORT RD AND BLOSSOM HILL RD TO SAN JOSE AVE TO HARWOOD AVE1/18/2012 12:00 AMSyTech Solutions, Inc2/6/2012 3:25 PMSACLA.0003.0627_00043888
20120206152326_001A1F2F  CALAVERAS RDCONTRACTS AND AGREEMENTS COST SHARING CALAVERAS RD MILPITAS CITY OF FOOTPATH FROM PIEDMONT ROAD TO ED LEVIN PARK1/18/2012 12:00 AMSyTech Solutions, Inc5/18/2018 2:37 PMSACLA.0003.0627_00043889
20120206152326_001A1F2E  BURCHELL ROADCONTRACTS AND AGREEMENTS COST SHARING BURCHELL ROAD SANTA CLARA VALLEY WATER DISTRICT1/18/2012 12:00 AMSyTech Solutions, Inc5/18/2018 2:37 PMSACLA.0003.0627_00043890
20120206152326_001A1F32  CAMDEN AVECONTRACTS AND AGREEMENTS COST SHARING CAMDEN AVE SAN JOSE CITY OF BOSE LANE TO TRINIDAD AVE1/18/2012 12:00 AMSyTech Solutions, Inc5/18/2018 2:42 PMSACLA.0003.0627_00043891
20120206152326_001A1F29  CONTRACTS AND AGREEMENTS COST SHARING BOYNTON AVE SAN JOSE CITY PORTIONS BOYNTON AVE CLAYTON RD JACK SENTER RD AND SNELL ROAD1/18/2012 12:00 AMSyTech Solutions, Inc2/6/2012 3:25 PMSACLA.0003.0627_00043892
20120206152326_001A1F37  CAMDEN AVECONTRACTS AND AGREEMENTS COST SHARING CAMDEN AVE EXT SAN JOSE CITY VICINITY TRACTS 3785 AND 3786 TO GREYSTONE LANE1/18/2012 12:00 AMSyTech Solutions, Inc5/18/2018 2:42 PMSACLA.0003.0627_00043893
20120206152326_001A1F26  CONTRACTS AND AGREEMENTS COST SHARING BLOSSOM HILL RD SAN JOSE CITY SIGNALS AND IMPVTS AT INTERSECTION WITH KOOSER RD PEARL AND CAHALAN AVE1/18/2012 12:00 AMSyTech Solutions, Inc2/6/2012 3:25 PMSACLA.0003.0627_00043894
20120206152326_001A1F27  CONTRACTS AND AGREEMENTS COST SHARING BLOSSOM HILL RD S J CITY AND LOS GATOS TOWN SIGNALS AT HARWOOD RD AND LEIGH AVE1/18/2012 12:00 AMSyTech Solutions, Inc2/6/2012 3:25 PMSACLA.0003.0627_00043895
20120206152326_001A1F30  CALAVARAS RDCONTRACTS AND AGREEMENTS COST SHARING CALAVERAS ROAD STATE DIV OF HWYS TRAFFIC SIGNALS AND HWY LIGHTIN BTW RT 680 AND RT 2371/18/2012 12:00 AMSyTech Solutions, Inc5/18/2018 2:35 PMSACLA.0003.0627_00043896
20120206152326_001A1F24  CONTRACTS AND AGREEMENTS COST SHARING BLOSSOM HILL RD SAN JOSE CITY1/18/2012 12:00 AMSyTech Solutions, Inc2/6/2012 3:25 PMSACLA.0003.0627_00043897
20120206152326_001A1F33  CAMDEN AVECONTRACTS AND AGREEMENTS COST SHARING CAMDEN AVE SAN JOSE CITY OF LEIGH AVE INTERSECTION1/18/2012 12:00 AMSyTech Solutions, Inc5/18/2018 2:42 PMSACLA.0003.0627_00043898
20120206152326_001A1F31  CAMDEN AVECONTRACTS AND AGREEMENTS COST SHARING CAMDEN AVE CAMPBELL CITY OF1/18/2012 12:00 AMSyTech Solutions, Inc5/18/2018 2:42 PMSACLA.0003.0627_00043899
20120206152326_001A1F35  CAMDEN AVECONTRACTS AND AGREEMENTS COST SHARING CAMDEN AVE SAN JOSE CITY OF PORTIONS OF CAMDEN AND MERIDIAN AVE1/18/2012 12:00 AMSyTech Solutions, Inc5/18/2018 2:42 PMSACLA.0003.0627_00043900
20120206152326_001A1F2C  BUBB ROADCONTRACTS AND AGREEMENTS COST SHARING BUBB ROAD CUPERTINO CITY NEAR VAI AVENUE1/18/2012 12:00 AMSyTech Solutions, Inc5/18/2018 2:37 PMSACLA.0003.0627_00043901
20120206152326_001A1F2A  CONTRACTS AND AGREEMENTS COST SHARING BRIDGE INSPECTION STATE DEPARTMENT OF TRANSPORTATION1/18/2012 12:00 AMSyTech Solutions, Inc2/6/2012 3:25 PMSACLA.0003.0627_00043902
20120206152326_001A1F34  CAMDEN AVECONTRACTS AND AGREEMENTS COST SHARING CAMDEN AVE SAN JOSE CITY OF LEIGH AVE TO ROUTE 171/18/2012 12:00 AMSyTech Solutions, Inc5/18/2018 2:42 PMSACLA.0003.0627_00043903
20120206152326_001A1F2B  CONTRACTS AND AGREEMENTS COST SHARING BROKAW ROAD STATE DIV OF HWY PROJ 6 SIGNALS AT BAYSHORE HWY1/18/2012 12:00 AMSyTech Solutions, Inc2/6/2012 3:25 PMSACLA.0003.0627_00043904
20120206152326_001A1F28  CONTRACTS AND AGREEMENTS COST SHARING BRANHAM LANE/LEIGH AVE SAN JOSE CITY TRAFFIC CONTROL SIGNALS AND CHANNELIZATION1/18/2012 12:00 AMSyTech Solutions, Inc2/6/2012 3:25 PMSACLA.0003.0627_00043905
20120206152326_001A1F36  CONTRACTS AND AGREEMENTS COST SHARING CAMDEN AVENUE SAN JOSE CITY OF STATE RTE 17 TO LEIGH AVE1/18/2012 12:00 AMSyTech Solutions, Inc2/6/2012 3:25 PMSACLA.0003.0627_00043906
20120206152326_001A1F2D  BUDD AVECONTRACTS AND AGREEMENTS COST SHARING BUDD AVENUE CAMPBELL CITY BTW VIRGINIA AVE AND WINCHESTER BLVD1/18/2012 12:00 AMSyTech Solutions, Inc5/18/2018 2:37 PMSACLA.0003.0627_00043907
20120206152326_001A1F38  CAMPBELL AVECONTRACTS AND AGREEMENTS COST SHARING CAMPBELL AVE EAST CAMPBELL CITY1/18/2012 12:00 AMSyTech Solutions, Inc5/18/2018 2:42 PMSACLA.0003.0627_00043908
20120206152326_001A1F39  Capitol AveCONTRACTS AND AGREEMENTS COST SHARING CAPITOL AVE SAN JOSE CITY OF ALUM ROCK AVE TO MCKEE RD1/18/2012 12:00 AMSyTech Solutions, Inc5/18/2018 2:14 PMSACLA.0003.0627_00043909
20120206152326_001A1F44  CONTRACTS AND AGREEMENTS COST SHARING CAPITOL EXPWY SAN JOSE CITY ACQUISITION OF R/W1/18/2012 12:00 AMSyTech Solutions, Inc2/6/2012 3:25 PMSACLA.0003.0627_00043910
20120206152326_001A1F40  CONTRACTS AND AGREEMENTS COST SHARING CAPITOL EXPWY SAN JOSE CITY BTW SENTER RD AND ABORN RD1/18/2012 12:00 AMSyTech Solutions, Inc2/6/2012 3:25 PMSACLA.0003.0627_00043911
20120206152326_001A1F42  CONTRACTS AND AGREEMENTS COST SHARING CAPITOL EXPWY LYON WM DEVELOPMENT CO FENCE ALONG EXPRESSWAY1/18/2012 12:00 AMSyTech Solutions, Inc2/6/2012 3:25 PMSACLA.0003.0627_00043912
20120206152326_001A1F4A  CONTRACTS AND AGREEMENTS COST SHARING CAPITOL AVENUE STATE DIV OF HWYS COUNTY STATE AGMT 17 FAS BTW MCKEE ROAD AND BERRYESSA ROAD1/18/2012 12:00 AMSyTech Solutions, Inc2/6/2012 3:25 PMSACLA.0003.0627_00043913
20120206152326_001A1F46  CONTRACTS AND AGREEMENTS COST SHARING CAPITOL EXPWY SCC FLOOD CONTROL AND WATER DIST CULVERT SILVER CREEK CROSSING AT BAMBI LANE1/18/2012 12:00 AMSyTech Solutions, Inc2/6/2012 3:25 PMSACLA.0003.0627_00043914
20120206152326_001A1F41  CONTRACTS AND AGREEMENTS COST SHARING CAPITOL EXPWY SAN JOSE CITY BTW ALMADEN EXPWY AND SENTER ROAD1/18/2012 12:00 AMSyTech Solutions, Inc2/6/2012 3:25 PMSACLA.0003.0627_00043915
20120206152326_001A1F47  CONTRACTS AND AGREEMENTS COST SHARING CAPITOL EXPWY SC CO FLOOD CONTROL AND WATER DIST IMPVT OF THOMPSON CRK AND SILVER CRK1/18/2012 12:00 AMSyTech Solutions, Inc2/6/2012 3:25 PMSACLA.0003.0627_00043916
20120206152326_001A1F43  CONTRACTS AND AGREEMENTS COST SHARING CAPITOL EXPWY SOUTHERN PACIFIC COMPANY OVERPASS AT MONTEREY HWY1/18/2012 12:00 AMSyTech Solutions, Inc2/6/2012 3:25 PMSACLA.0003.0627_00043917
20120206152326_001A1F3A  Capitol AveAGREEMENT BETWEEN THE CITY OF SAN JOSE AND THE COUNTY OF SANTA CLARA FOR THE CONSTRUCTION OF ULTIMATE IMPROVEMENTS ON CAPITOL AVENUE BETWEEN- ALUM ROCK AVENUE AND MC KEE ROAD 1/18/2012 12:00 AMSyTech Solutions, Inc5/18/2018 2:14 PMSACLA.0003.0627_00043918
20120206152326_001A1F3C  CONTRACTS AND AGREEMENTS COST SHARING CAPITOL AVE AND PENITENCIA SAN JOSE CITY TRAFFIC SIGNALS AND CHANNELIZATION1/18/2012 12:00 AMSyTech Solutions, Inc2/6/2012 3:25 PMSACLA.0003.0627_00043919
20120206152326_001A1F3F  CONTRACTS AND AGREEMENTS COST SHARING CAPITOL EXPWY SAN JOSE CITY MCLAUGHLIN AVE CONNECTION1/18/2012 12:00 AMSyTech Solutions, Inc2/6/2012 3:25 PMSACLA.0003.0627_00043920
20120206152326_001A1F3D  CONTRACTS AND AGREEMENTS COST SHARING CAPITOL EXPWY SAN JOSE CITY OF CONNECTION AND SIGNALIZATION AT NIEMAN BLVD1/18/2012 12:00 AMSyTech Solutions, Inc2/6/2012 3:25 PMSACLA.0003.0627_00043921
20120206152326_001A1F3E  CONTRACTS AND AGREEMENTS COST SHARING CAPITOL EXPRWY SAN JOSE CITY TULLY INTERSECTION1/18/2012 12:00 AMSyTech Solutions, Inc2/6/2012 3:25 PMSACLA.0003.0627_00043922
20120206152326_001A1F4C  CAPITOL EXPWYCONTRACTS AND AGREEMENTS COST SHARING CAPITOL EXPWY STATE DIV OF HWYS CO STATE AGMT 26 FAS S-1015 (4) ALMADEN EXPWY AND NARVAES RD1/18/2012 12:00 AMSyTech Solutions, Inc5/18/2018 2:43 PMSACLA.0003.0627_00043923
20120206152326_001A1F3B  CAPITOL AVECONTRACTS AND AGREEMENTS COST SHARING CAPITOL AVENUE SAN JOSE CITY BTW 150 N OF ALUM ROCK AVE AND WESTBORO DRIVE1/18/2012 12:00 AMSyTech Solutions, Inc5/18/2018 2:43 PMSACLA.0003.0627_00043924
20120206152326_001A1F45  CONTRACTS AND AGREEMENTS COST SHARING CAPITOL EXPWY SAN JOSE CITY AND STATE DIV HWY FAS AGMT UE 69-3 BTW GUADALUPE RIVER AND RT 1011/18/2012 12:00 AMSyTech Solutions, Inc2/6/2012 3:25 PMSACLA.0003.0627_00043925
20120206152326_001A1F4B  CONTRACTS AND AGREEMENTS COST SHARING CAPITOL EXPWY STATE DIV OF HWY CO STATE AGMT 24 FAS S-1015 (3) TUERS ROAD AND ABORN ROAD1/18/2012 12:00 AMSyTech Solutions, Inc2/6/2012 3:25 PMSACLA.0003.0627_00043926
20120206152326_001A1F48  CONTRACTS AND AGREEMENTS COST SHARING CAPITOL EXPWY STATE DIV OF HWY ACQ OF PARCELS 32208-32209 322111/18/2012 12:00 AMSyTech Solutions, Inc2/6/2012 3:25 PMSACLA.0003.0627_00043927
20120206152326_001A1F4D  CAPITOL EXPWYCONTRACTS AND AGREEMENTS COST SHARING CAPITOL EXPWY STATE DIV OF HWYS CO STATE AGMT UE-64-1 FAS 1015 UE-1 SENTER ROAD AND TUERS ROAD1/18/2012 12:00 AMSyTech Solutions, Inc5/18/2018 2:43 PMSACLA.0003.0627_00043928
20120206152326_001A1F49  CONTRACTS AND AGREEMENTS COST SHARING CAPITOL AVENUE STATE DIV OF HWYS COUNTY STATE AGMT 14 FAS BTW HIGHWOOD DRIVE AND STORY ROAD1/18/2012 12:00 AMSyTech Solutions, Inc2/6/2012 3:25 PMSACLA.0003.0627_00043929
20120206152326_001A1F51  CARMEL STCONTRACTS AND AGREEMENTS COST SHARING CARMEL STREET GILROY CITY FIRST STREET TO FIFTH STREET1/18/2012 12:00 AMSyTech Solutions, Inc5/18/2018 2:44 PMSACLA.0003.0627_00043930
20120206152326_001A1F55  CENTRAL EXPWYCONTRACTS AND AGREEMENTS COST SHARING CENTRAL EXPRESSWAY MOUNTAIN VIEW CITY OF FIRE PREEMPTION EQUIPMENT1/18/2012 12:00 AMSyTech Solutions, Inc5/18/2018 2:45 PMSACLA.0003.0627_00043931
20120206152326_001A1F5D  CONTRACTS AND AGREEMENTS COST SHARING CENTRAL EXPWY SUNNYVALE CITY BTW BERNARDO AVE AND 1200 E OF COMMERCIAL AVE1/18/2012 12:00 AMSyTech Solutions, Inc2/6/2012 3:26 PMSACLA.0003.0627_00043932
20120206152326_001A1F52  CASTRO STCONTRACTS AND AGREEMENTS COST SHARING CASTRO STREET MT VIEW CITY CASTRO MIRAMONTE STREET INTERSECTION1/18/2012 12:00 AMSyTech Solutions, Inc5/18/2018 2:44 PMSACLA.0003.0627_00043933
20120206152326_001A1F54  CENTRAL EXPWYCONTRACTS AND AGREEMENTS COST SHARING CENTRAL EXPWY MOUNTAIN VIEW CITY STORM DRAIN EXT AND WATER MAIN EXT1/18/2012 12:00 AMSyTech Solutions, Inc5/18/2018 2:45 PMSACLA.0003.0627_00043934
20120206152326_001A1F5C  CONTRACTS AND AGREEMENTS COST SHARING CENTRAL EXPWY SUNNYVALE CITY BERNARDO AVE TO COMMERCIAL AVE1/18/2012 12:00 AMSyTech Solutions, Inc2/6/2012 3:26 PMSACLA.0003.0627_00043935
20120206152326_001A1F59  CENTRAL EXPWYCONTRACTS AND AGREEMENTS COST SHARING CENTRAL EXPWY STATE DIV OF HWYS KIFER ROAD UNDERPASS1/18/2012 12:00 AMSyTech Solutions, Inc5/18/2018 2:46 PMSACLA.0003.0627_00043936
20120206152326_001A1F5B  CENTRAL EXPWYCONTRACTS AND AGREEMENTS COST SHARING CENTRAL EXPWY SUNNYVALE CITY COMMERCIAL AVE TO CALABAZAS CRK IMPVT TO STORM DRAIN AND SEWERS1/18/2012 12:00 AMSyTech Solutions, Inc5/18/2018 2:46 PMSACLA.0003.0627_00043937
20120206152326_001A1F60  CONTRACTS AND AGREEMENTS COST SHARING CUNNINGHAM AVE ETC SAN JOSE CITY EAST CAPITOL EXPWY TO WHITE ROAD1/18/2012 12:00 AMSyTech Solutions, Inc2/6/2012 3:26 PMSACLA.0003.0627_00043938
20120206152326_001A1F5E  CONTRACTS AND AGREEMENTS COST SHARING COCHRANE BRIDGE STATE DEPT OF TRANSPORTATION DUNNE AVENUE AT ANDERSON LAKE COYOTE CIR1/18/2012 12:00 AMSyTech Solutions, Inc2/16/2012 9:58 AMSACLA.0003.0627_00043939
20120206152326_001A1F4F  CAPITOL EXPWYCONTRACTS AND AGREEMENTS COST SHARING CAPITOL EXPWY STATE DIV OF HWYS AND SAN JOSE CITY AGMT UE-69-12 FAS PROJ 1015-3 UN IV BTW 0.1 MI S OF STORY RD AND RT 6801/18/2012 12:00 AMSyTech Solutions, Inc5/18/2018 2:44 PMSACLA.0003.0627_00043940
20120206152326_001A1F56  CENTRAL EXPWYCONTRACTS AND AGREEMENTS COST SHARING CENTRAL EXPWY MOUNTAIN VIEW CITY OF NORTH SHORELINE BLVD1/18/2012 12:00 AMSyTech Solutions, Inc5/18/2018 2:45 PMSACLA.0003.0627_00043941
20120206152326_001A1F5F  CONTRACTS AND AGREEMENTS COST SHARING CLAYTON ROAD SAN JOSE CITY STORY ROAD TO MT PLEASANT ROAD1/18/2012 12:00 AMSyTech Solutions, Inc2/6/2012 3:26 PMSACLA.0003.0627_00043942
20120206152326_001A1F58  CENTRAL EXPWYCONTRACTS AND AGREEMENTS COST SHARING CENTRAL EXPWY SANTA CLARA CITY COMMERCIAL AVE TO CALABAZAS CRK IMPVT TO STORM DRAIN AND SEWERS1/18/2012 12:00 AMSyTech Solutions, Inc5/18/2018 2:46 PMSACLA.0003.0627_00043943
20120206152326_001A1F50  CAPITOL AVECONTRACTS AND AGREEMENTS COST SHARING CAPITOL AVENUE STATE DIV OF HWY SIGNALS ON ALUM ROCK AV AT KING RD AND AT CAPITOL AVE1/18/2012 12:00 AMSyTech Solutions, Inc5/18/2018 2:44 PMSACLA.0003.0627_00043944
20120206152326_001A1F57  CENTRAL EXPWYCONTRACTS AND AGREEMENTS COST SHARING CENTRAL EXPWY MOUNTAIN VIEW CITY WHISMAN ROAD OVERCROSSING1/18/2012 12:00 AMSyTech Solutions, Inc5/18/2018 2:45 PMSACLA.0003.0627_00043945
20120206152326_001A1F5A  CENTRAL EXPWYCONTRACTS AND AGREEMENTS COST SHARING CENTRAL EXPWY STATE DIV OF HWYS GRADE SEPARATION AT BAILEY AVE OVER SO PACIFIC RR TRACKS1/18/2012 12:00 AMSyTech Solutions, Inc5/18/2018 2:46 PMSACLA.0003.0627_00043946
20120206152326_001A1F53  CENTRAL EXPWYCONTRACTS AND AGREEMENTS COST SHARING CENTRAL EXPWY LOS ALTOS HILLS TOWN NON EXPRESSWAY ALLOCATION TO TOWN1/18/2012 12:00 AMSyTech Solutions, Inc5/18/2018 2:44 PMSACLA.0003.0627_00043947
20120206152326_001A1F4E  CONTRACTS AND AGREEMENTS COST SHARING CAPITOL EXPWY STATE DIV OF HWY CO STATE AGMT EU 65-6 FAS UE 1015-2 NARVAEZ ROAD AND SENTER ROAD1/18/2012 12:00 AMSyTech Solutions, Inc2/6/2012 3:26 PMSACLA.0003.0627_00043948
20120206152326_001A298D  LAWRENCE EXPRESSWAY2676LEFT TURN LANE EXTENSIONS VARIOUS LOCATIONS1/18/2012 12:00 AMSyTech Solutions, Inc2/6/2012 3:24 PMSACLA.0003.0627_00033949
20120206152326_001A2233  STATE HIGHWAYSROUTE 237 TRAFFIC PROOF FILL PROJECT UNSUCCESSFUL BIDDERS1/18/2012 12:00 AMSyTech Solutions, Inc2/6/2012 3:23 PMSACLA.0003.0627_00013950
20120206152326_001A298C  LAWRENCE EXPRESSWAY2676LANDSCAPING AT EL CAMINO REAL AND MISC PLANTING1/18/2012 12:00 AMSyTech Solutions, Inc2/6/2012 3:24 PMSACLA.0003.0627_00033951
20120206152326_001A222A  STATE HIGHWAYSROUTE 101 CONDEMNATION ACTIONS 2 YRS AND DESTROY1/18/2012 12:00 AMSyTech Solutions, Inc2/6/2012 3:23 PMSACLA.0003.0627_00013952
20120206152326_001A2237  STATE HIGHWAYSROUTE 280 1963-19661/18/2012 12:00 AMSyTech Solutions, Inc2/6/2012 3:24 PMSACLA.0003.0627_00013953
20120206152326_001A2231  STATE HIGHWAYSROUTE 237 TRAFFIC PROOF FILL PROJECT OLIVER DE SILVA INC 19881/18/2012 12:00 AMSyTech Solutions, Inc2/6/2012 3:23 PMSACLA.0003.0627_00013954
20120206152326_001A298E  LAWRENCE EXPRESSWAY2676NORTHLAWN DR TO RTE 280 DESIGN CONCEPT1/18/2012 12:00 AMSyTech Solutions, Inc2/6/2012 3:24 PMSACLA.0003.0627_00033955
20120206152326_001A222B  STATE HIGHWAYSROUTE 101 PENINSULA RTE 101 STUDY1/18/2012 12:00 AMSyTech Solutions, Inc2/6/2012 3:23 PMSACLA.0003.0627_00013956
20120206152326_001A2988  LAWRENCE EXPRESSWAY2676BAYSHORE FWY TO SARATOGA AVE WIDEN TO 6 LANES1/18/2012 12:00 AMSyTech Solutions, Inc2/6/2012 3:24 PMSACLA.0003.0627_00033957
20120206152326_001A222C  STATE HIGHWAYSROUTE 130 GENERAL1/18/2012 12:00 AMSyTech Solutions, Inc2/6/2012 3:23 PMSACLA.0003.0627_00013958
20120206152326_001A298F  LAWRENCE EXPRESSWAY2676PEDESTRIAN OVERCROSSING LAKEDALE AVE BLAZINGWOOD DR1/18/2012 12:00 AMSyTech Solutions, Inc2/6/2012 3:25 PMSACLA.0003.0627_00033959
20120206152326_001A2986  LAWRENCE EXPRESSWAY2676COMMUTER LANES PROJECT1/18/2012 12:00 AMSyTech Solutions, Inc2/6/2012 3:24 PMSACLA.0003.0627_00033960
20120206152326_001A222F  STATE HIGHWAYSROUTE 237 19661/18/2012 12:00 AMSyTech Solutions, Inc2/6/2012 3:23 PMSACLA.0003.0627_00013961
20120206152326_001A2235  STATE HIGHWAYSROUTE 280 1962 AND PRIOR1/18/2012 12:00 AMSyTech Solutions, Inc2/6/2012 3:23 PMSACLA.0003.0627_00013962
20120206152326_001A222E  STATE HIGHWAYSROUTE 152 GENERAL1/18/2012 12:00 AMSyTech Solutions, Inc2/6/2012 3:23 PMSACLA.0003.0627_00013963
20120206152326_001A2230  STATE HIGHWAYSROUTE 237 1965 AND PRIOR1/18/2012 12:00 AMSyTech Solutions, Inc2/6/2012 3:23 PMSACLA.0003.0627_00013964
20120206152326_001A2989  LAWRENCE EXPWY2676SUNNYVALE SPRR OVERHEAD SEISMIC RETROFIT AND WIDENING1/18/2012 12:00 AMSyTech Solutions, Inc2/6/2012 3:24 PMSACLA.0003.0627_00033965
20120206152326_001A2234  Hwy 280Sound wall  on route 280, 15 locations, Includes reso's and deedsROUTE 280 19671/18/2012 12:00 AMSyTech Solutions, Inc8/9/2018 10:15 AMSACLA.0003.0627_00013966
20120206152326_001A2226  STATE HIGHWAYSROUTE 101 COCHRAN ROAD TO FORD ROAD PUBLIC HEARING1/18/2012 12:00 AMSyTech Solutions, Inc2/6/2012 3:23 PMSACLA.0003.0627_00013967
20120206152326_001A2993  LAWRENCE EXPRESSWAY2676PERMITS RIGHT OF ENTRY SOUTHERN PACIFIC CO1/18/2012 12:00 AMSyTech Solutions, Inc2/6/2012 3:25 PMSACLA.0003.0627_00033968
20120206152326_001A29A4  LAWRENCE EXPRESSWAY2676PERMITS LANDSCAPING FRANCISCAN BUILDERS INC1/18/2012 12:00 AMSyTech Solutions, Inc2/6/2012 3:25 PMSACLA.0003.0627_00033969
20120206152326_001A29A8  LAWRENCE EXPRESSWAY2676PERMITS RIGHT OF ENTRY SAN JOSE CITY1/18/2012 12:00 AMSyTech Solutions, Inc2/6/2012 3:25 PMSACLA.0003.0627_00033970
20120206152326_001A29A5  LAWRENCE EXPRESSWAY2676PERMITS GRANT OF EASEMENT PACIFIC GAS AND ELECTRIC CO1/18/2012 12:00 AMSyTech Solutions, Inc2/6/2012 3:25 PMSACLA.0003.0627_00033971
20120206152326_001A29A2  LAWRENCE EXPRESSWAY2676PERMITS ENCROACHMENT CUPERTINO SANITARY DIST1/18/2012 12:00 AMSyTech Solutions, Inc2/6/2012 3:25 PMSACLA.0003.0627_00033972
20120206152326_001A299F  LAWRENCE EXPRESSWAY2676PERMITS EASEMENT GRANT PACIFIC GAS AND ELECTRIC CO1/18/2012 12:00 AMSyTech Solutions, Inc2/6/2012 3:25 PMSACLA.0003.0627_00033973
20120206152326_001A299D  LAWRENCE EXPRESSWAY2676PERMITS EASEMENT GRANT PACIFIC GAS AND ELECTRIC CO1/18/2012 12:00 AMSyTech Solutions, Inc2/6/2012 3:25 PMSACLA.0003.0627_00033974
20120206152326_001A2999  LAWRENCE EXPRESSWAY2676RESURFACING PROSPECT RD TO HWY 2801/18/2012 12:00 AMSyTech Solutions, Inc2/6/2012 3:25 PMSACLA.0003.0627_00033975
20120206152326_001A299B  LAWRENCE EXPRESSWAY2676STEVENS CREEK BLVD SEP SEISMIC SAFETY IMPVMT1/18/2012 12:00 AMSyTech Solutions, Inc2/6/2012 3:25 PMSACLA.0003.0627_00033976
20120206152326_001A2994  LAWRENCE EXPRESSWAY2676EXCESS PROPERTY SALE OF UNSUCCESSFUL BIDS1/18/2012 12:00 AMSyTech Solutions, Inc2/6/2012 3:25 PMSACLA.0003.0627_00033977
20120206152326_001A29A3  LAWRENCE EXPRESSWAY2676PERMITS LANDSCAPING BIRTCHER PACIFIC1/18/2012 12:00 AMSyTech Solutions, Inc2/6/2012 3:25 PMSACLA.0003.0627_00033978
20120206152326_001A29A9  LAWRENCE EXPRESSWAY2676RIGHTS OF WAY A1/18/2012 12:00 AMSyTech Solutions, Inc2/6/2012 3:25 PMSACLA.0003.0627_00033979
20120206152326_001A2996  LAWRENCE EXPRESSWAY2676PARK PROPOSAL1/18/2012 12:00 AMSyTech Solutions, Inc2/6/2012 3:25 PMSACLA.0003.0627_00033980
20120206152326_001A299C  LAWRENCE EXPWY2676SUNNYVALE SPRR BRIDGE WIDENING1/18/2012 12:00 AMSyTech Solutions, Inc2/6/2012 3:25 PMSACLA.0003.0627_00033981
20120206152326_001A2997  LAWRENCE EXPRESSWAY EQUIPMENT RENTAL FOR APPROACH GRADING2676BELLICITTI AND PELLICCIOTTI CONTRACTOR 3151/18/2012 12:00 AMSyTech Solutions, Inc2/6/2012 3:25 PMSACLA.0003.0627_00033982
20120206152326_001A29A1  LAWRENCE EXPRESSWAY2676PERMITS EASEMENT GRANT SAN JOSE CITY1/18/2012 12:00 AMSyTech Solutions, Inc2/6/2012 3:25 PMSACLA.0003.0627_00033983
20120206152326_001A2992  LAWRENCE EXPRESSWAY2676NORTHLAWN DR TO RTE 280 PROPOSED WIDENING1/18/2012 12:00 AMSyTech Solutions, Inc2/6/2012 3:25 PMSACLA.0003.0627_00033984
20120206152326_001A29AA  LAWRENCE EXPRESSWAY2676RIGHTS OF WAY BA-BOQ1/18/2012 12:00 AMSyTech Solutions, Inc2/6/2012 3:25 PMSACLA.0003.0627_00033985
20120206152326_001A29AB  LAWRENCE EXPRESSWAY2676RIGHTS OF WAY BOR-BZ1/18/2012 12:00 AMSyTech Solutions, Inc2/6/2012 3:25 PMSACLA.0003.0627_00033986
20120206155018_001A1AD0  PRIVATE A-C1/18/2012 12:00 AMSyTech Solutions, Inc2/6/2012 3:53 PMSACLA.0003.0627_00093987
20120206155018_001A1ADA  PRIVATE SUBJECT TO VEHICLE CODE/JEANIE LANE1/18/2012 12:00 AMSyTech Solutions, Inc2/6/2012 3:53 PMSACLA.0003.0627_00093988
20120206155018_001A1AD4  PRIVATE SUBJECT TO VEHICLE CODE/GENERAL1/18/2012 12:00 AMSyTech Solutions, Inc2/6/2012 3:53 PMSACLA.0003.0627_00093989
20120206155018_001A1AD6  PRIVATE SUBJECT TO VEHICLE CODE ALDERCROFT HEIGHTS1/18/2012 12:00 AMSyTech Solutions, Inc2/6/2012 3:53 PMSACLA.0003.0627_00093990
20120206155018_001A1AD1  PRIVATE D-L1/18/2012 12:00 AMSyTech Solutions, Inc2/6/2012 3:53 PMSACLA.0003.0627_00093991
20120206155018_001A1AD3  PRIVATE T-Z1/18/2012 12:00 AMSyTech Solutions, Inc2/6/2012 3:53 PMSACLA.0003.0627_00093992
20120206155018_001A1ACE  NAMING AND NAME CHANGES PROCEEDING ABANDONED1/18/2012 12:00 AMSyTech Solutions, Inc2/6/2012 3:53 PMSACLA.0003.0627_00093993
20120206155018_001A1AD9  PRIVATE TO VEHICLE CODE/GARCAL DRIVE1/18/2012 12:00 AMSyTech Solutions, Inc2/6/2012 3:53 PMSACLA.0003.0627_00093994
20120206155018_001A1AD2  PRIVATE M-S1/18/2012 12:00 AMSyTech Solutions, Inc2/6/2012 3:53 PMSACLA.0003.0627_00093995
20120206155018_001A1AD7  PRIVATE SUBJECT TO VEHICLE CODE/CHEMEKETA PARK1/18/2012 12:00 AMSyTech Solutions, Inc2/6/2012 3:53 PMSACLA.0003.0627_00093996
20120206155018_001A1ADB  PRIVATE SUBJECT TO VEHICLE CODE/KING GEORGE COURT1/18/2012 12:00 AMSyTech Solutions, Inc2/6/2012 3:53 PMSACLA.0003.0627_00093997
20120206155018_001A1ADF  PRIVATE SUBJECT TO VEHICLE CODE/PARRISH VIEW AND JEFFERSON DR1/18/2012 12:00 AMSyTech Solutions, Inc2/6/2012 3:53 PMSACLA.0003.0627_00093998
20120206155018_001A1AE4  SIGNS DIRECTIONAL TO ADOBE CREEK LODGE1/18/2012 12:00 AMSyTech Solutions, Inc2/6/2012 3:53 PMSACLA.0003.0627_00093999
20120206155018_001A1AE0  PRIVATE SUBJECT TO VEHICLE CODE/SKY OAKS WAY1/18/2012 12:00 AMSyTech Solutions, Inc2/6/2012 3:53 PMSACLA.0003.0627_00094000
20120206155018_001A1AE5  SIGNS HOSPITAL EMERGENCY ROOMS1/18/2012 12:00 AMSyTech Solutions, Inc2/6/2012 3:53 PMSACLA.0003.0627_00094001
20120206155018_001A1ADD  PRIVATE SUBJECT TO VEHICLE CODE/LAKE CANYON MUTUAL WATER CO1/18/2012 12:00 AMSyTech Solutions, Inc2/6/2012 3:53 PMSACLA.0003.0627_00094002
20120206155018_001A1AE7  STATE HIGHWAYS/GENERAL/1958 THRU 19591/18/2012 12:00 AMSyTech Solutions, Inc2/6/2012 3:53 PMSACLA.0003.0627_00094003
20120206155018_001A1AEC  STATE HIGHWAYS/GENERAL/19601/18/2012 12:00 AMSyTech Solutions, Inc2/6/2012 3:54 PMSACLA.0003.0627_00094004
20120206155018_001A1AED  STATE HIGHWAYS ROUTE 5/GENERAL1/18/2012 12:00 AMSyTech Solutions, Inc2/6/2012 3:54 PMSACLA.0003.0627_00094005
20120206155018_001A1AEE  STATE HIGHWAYS ROUTE 9/LOS GATOS SARATOGA RD/GENERAL1/18/2012 12:00 AMSyTech Solutions, Inc2/6/2012 3:54 PMSACLA.0003.0627_00094006
20120206155018_001A1AE3  SELECT SYSTEM1/18/2012 12:00 AMSyTech Solutions, Inc2/6/2012 3:53 PMSACLA.0003.0627_00094007
20120206155018_001A1AEB  STATE HIGHWAYS/GENERAL/1961-19711/18/2012 12:00 AMSyTech Solutions, Inc2/6/2012 3:54 PMSACLA.0003.0627_00094008
20120206155018_001A1AE1  SIGNS GENERAL1/18/2012 12:00 AMSyTech Solutions, Inc2/6/2012 3:53 PMSACLA.0003.0627_00094009
20120206155018_001A1AE6  STATE HIGHWAYS SCENIC1/18/2012 12:00 AMSyTech Solutions, Inc2/6/2012 3:53 PMSACLA.0003.0627_00094010
20120206155018_001A1AE9  STATE HIGHWAYS/GENERAL/1957 AND PRIOR1/18/2012 12:00 AMSyTech Solutions, Inc2/6/2012 3:54 PMSACLA.0003.0627_00094011
20120206155018_001A1BA3  CONTRACTS AND AGREEMENTS COST SHARING STEVENS CRK BLVD CUPERTINO CITY IMPVT AND ACQ OF PROPERTY BERTHA CRAFT1/18/2012 12:00 AMSyTech Solutions, Inc2/6/2012 3:50 PMSACLA.0003.0627_00074012
20120206155018_001A1B9E  CONTRACTS AND AGREEMENTS COST SHARING STEVENS CANYON RD STATE DIV OF HWY1/18/2012 12:00 AMSyTech Solutions, Inc2/6/2012 3:50 PMSACLA.0003.0627_00074013
20120206155018_001A1BA5  CONTRACTS AND AGREEMENTS COST SHARING STEVENS CRK BLVD CUPERTINO CITY OF TRAFFIC SIGNALS AT TANTAU AVE1/18/2012 12:00 AMSyTech Solutions, Inc2/6/2012 3:50 PMSACLA.0003.0627_00074014
20120206155018_001A1BA1  CONTRACTS AND AGREEMENTS COST SHARING STEVENS CREEK BLVD AND BUBB RD/PENINSULA BLVD CUPERTINO CITY OF TRAFFIC SIGNAL AND HIGHWAY LIGHTING INSTALLATION1/18/2012 12:00 AMSyTech Solutions, Inc2/6/2012 3:50 PMSACLA.0003.0627_00074015
20120206155018_001A1BA6  CONTRACTS AND AGREEMENTS COST SHARING STEVENS CREEK BLVD CUPERTINO CITY OF VICINTY OF PHARLAP DRIVE1/18/2012 12:00 AMSyTech Solutions, Inc2/6/2012 3:50 PMSACLA.0003.0627_00074016
20120206155018_001A1BA8  CONTRACTS AND AGREEMENTS COST SHARING STEVENS CRK BLVD SAN JOSE CITY SIGNALS AT BELLEROSE DRIVE1/18/2012 12:00 AMSyTech Solutions, Inc2/6/2012 3:50 PMSACLA.0003.0627_00074017
1 - 300Next

©2022 County of Santa Clara. All rights reserved.